createdAt,value
2022-12-07T00:02:00.516Z,2.15
2022-12-07T00:04:27.808Z,2.10
2022-12-07T00:06:57.947Z,2.88
2022-12-07T00:09:26.538Z,2.10
2022-12-07T00:11:53.883Z,2.40
2022-12-07T00:14:21.645Z,1.80
2022-12-07T00:16:53.621Z,2.33
2022-12-07T00:19:20.951Z,2.22
2022-12-07T00:21:51.256Z,2.47
2022-12-07T00:24:18.315Z,2.25
2022-12-07T00:26:46.164Z,2.50
2022-12-07T00:29:22.829Z,2.00
2022-12-07T00:31:52.006Z,2.03
2022-12-07T00:34:22.233Z,2.42
2022-12-07T00:36:49.706Z,2.10
2022-12-07T00:39:17.013Z,2.25
2022-12-07T00:41:44.034Z,1.73
2022-12-07T00:44:11.333Z,1.90
2022-12-07T00:46:38.372Z,1.90
2022-12-07T00:49:05.681Z,1.70
2022-12-07T00:51:32.769Z,1.63
2022-12-07T00:53:59.652Z,1.97
2022-12-07T00:56:28.807Z,1.80
2022-12-07T00:58:57.036Z,1.60
2022-12-07T01:01:26.352Z,2.28
2022-12-07T01:03:53.268Z,2.42
2022-12-07T01:06:22.158Z,2.13
2022-12-07T01:08:49.958Z,1.85
2022-12-07T01:11:20.301Z,2.30
2022-12-07T01:13:48.116Z,2.05
2022-12-07T01:16:17.299Z,1.70
2022-12-07T01:18:48.252Z,2.03
2022-12-07T01:21:25.211Z,2.33
2022-12-07T01:23:53.169Z,1.92
2022-12-07T01:26:30.767Z,1.45
2022-12-07T01:29:04.507Z,1.38
2022-12-07T01:31:32.030Z,1.23
2022-12-07T01:34:01.086Z,1.90
2022-12-07T01:36:33.953Z,1.70
2022-12-07T01:39:07.202Z,1.10
2022-12-07T01:41:44.684Z,1.23
2022-12-07T01:44:25.993Z,1.33
2022-12-07T01:46:58.430Z,1.33
2022-12-07T01:49:47.716Z,1.08
2022-12-07T01:52:29.508Z,1.40
2022-12-07T01:55:00.965Z,1.05
2022-12-07T01:57:32.483Z,0.90
2022-12-07T02:00:01.073Z,1.10
2022-12-07T02:02:42.469Z,0.80
2022-12-07T02:05:09.710Z,1.05
2022-12-07T02:07:40.131Z,1.10
2022-12-07T02:10:33.905Z,1.20
2022-12-07T02:13:06.716Z,1.42
2022-12-07T02:16:12.506Z,0.88
2022-12-07T02:18:47.813Z,1.60
2022-12-07T02:21:24.213Z,1.58
2022-12-07T02:24:12.666Z,0.93
2022-12-07T02:27:16.842Z,1.10
2022-12-07T02:29:59.593Z,1.58
2022-12-07T02:32:47.978Z,0.95
2022-12-07T02:35:23.841Z,1.67
2022-12-07T02:38:08.880Z,0.93
2022-12-07T02:40:53.671Z,1.23
2022-12-07T02:43:27.452Z,1.08
2022-12-07T02:46:00.806Z,0.88
2022-12-07T02:48:31.323Z,1.13
2022-12-07T02:50:58.459Z,1.27
2022-12-07T02:53:43.215Z,1.05
2022-12-07T02:56:16.940Z,0.98
2022-12-07T02:59:20.688Z,0.95
2022-12-07T03:02:15.415Z,0.85
2022-12-07T03:05:08.439Z,1.20
2022-12-07T03:07:43.446Z,0.70
2022-12-07T03:10:24.413Z,1.10
2022-12-07T03:13:03.524Z,0.70
2022-12-07T03:15:42.762Z,0.80
2022-12-07T03:18:12.249Z,1.33
2022-12-07T03:20:43.189Z,1.00
2022-12-07T03:23:11.939Z,0.80
2022-12-07T03:25:48.076Z,0.82
2022-12-07T03:28:19.151Z,0.90
2022-12-07T03:30:54.752Z,0.73
2022-12-07T03:33:33.812Z,1.08
2022-12-07T03:36:18.583Z,0.75
2022-12-07T03:38:51.874Z,0.70
2022-12-07T03:41:26.989Z,0.60
2022-12-07T03:43:58.150Z,0.67
2022-12-07T03:46:47.697Z,0.50
2022-12-07T03:49:24.990Z,0.88
2022-12-07T03:52:10.276Z,0.88
2022-12-07T03:54:53.240Z,0.50
2022-12-07T03:57:22.375Z,0.60
2022-12-07T03:59:49.662Z,1.15
2022-12-07T04:02:18.240Z,0.90
2022-12-07T04:04:45.118Z,1.00
2022-12-07T04:07:12.566Z,1.10
2022-12-07T04:09:39.465Z,0.60
2022-12-07T04:12:06.516Z,0.55
2022-12-07T04:14:33.397Z,0.88
2022-12-07T04:17:00.647Z,0.75
2022-12-07T04:19:34.950Z,0.80
2022-12-07T04:22:04.101Z,0.80
2022-12-07T04:24:31.308Z,0.47
2022-12-07T04:26:58.629Z,0.90
2022-12-07T04:29:26.182Z,0.68
2022-12-07T04:31:53.409Z,0.60
2022-12-07T04:34:21.092Z,0.70
2022-12-07T04:36:49.172Z,0.50
2022-12-07T04:39:42.495Z,0.80
2022-12-07T04:42:09.657Z,0.47
2022-12-07T04:44:36.479Z,0.70
2022-12-07T04:47:03.529Z,0.53
2022-12-07T04:49:30.473Z,0.95
2022-12-07T04:51:57.364Z,0.60
2022-12-07T04:54:24.491Z,0.68
2022-12-07T04:56:51.438Z,0.60
2022-12-07T04:59:18.958Z,0.67
2022-12-07T05:01:46.154Z,1.00
2022-12-07T05:04:13.328Z,1.10
2022-12-07T05:06:40.130Z,0.52
2022-12-07T05:09:07.454Z,0.30
2022-12-07T05:11:40.533Z,0.40
2022-12-07T05:14:16.651Z,0.60
2022-12-07T05:16:45.430Z,0.77
2022-12-07T05:19:13.527Z,0.60
2022-12-07T05:21:41.734Z,0.40
2022-12-07T05:24:20.227Z,0.40
2022-12-07T05:26:47.772Z,0.47
2022-12-07T05:29:16.755Z,0.40
2022-12-07T05:31:44.778Z,0.80
2022-12-07T05:34:12.186Z,0.40
2022-12-07T05:36:39.025Z,0.30
2022-12-07T05:39:07.091Z,0.50
2022-12-07T05:41:52.934Z,0.70
2022-12-07T05:44:19.824Z,0.30
2022-12-07T05:46:46.668Z,0.40
2022-12-07T05:49:13.569Z,0.20
2022-12-07T05:51:40.562Z,0.30
2022-12-07T05:54:07.611Z,0.65
2022-12-07T05:56:34.654Z,0.50
2022-12-07T05:59:20.118Z,0.40
2022-12-07T06:01:47.194Z,0.53
2022-12-07T06:04:14.610Z,0.40
2022-12-07T06:06:42.134Z,0.40
2022-12-07T06:09:09.400Z,0.40
2022-12-07T06:11:57.751Z,0.40
2022-12-07T06:14:25.573Z,0.40
2022-12-07T06:16:52.985Z,0.32
2022-12-07T06:19:20.077Z,0.30
2022-12-07T06:21:47.368Z,0.63
2022-12-07T06:24:16.439Z,0.30
2022-12-07T06:26:44.279Z,0.30
2022-12-07T06:29:12.516Z,0.60
2022-12-07T06:31:41.845Z,0.50
2022-12-07T06:34:12.743Z,0.40
2022-12-07T06:36:39.854Z,0.52
2022-12-07T06:39:09.507Z,0.50
2022-12-07T06:41:40.037Z,0.52
2022-12-07T06:44:07.992Z,0.50
2022-12-07T06:46:36.737Z,0.60
2022-12-07T06:49:05.231Z,0.65
2022-12-07T06:51:34.039Z,0.40
2022-12-07T06:54:00.897Z,0.50
2022-12-07T06:56:27.785Z,0.60
2022-12-07T06:58:54.800Z,0.80
2022-12-07T07:01:21.862Z,0.60
2022-12-07T07:03:48.790Z,0.60
2022-12-07T07:06:16.516Z,0.93
2022-12-07T07:08:44.227Z,0.80
2022-12-07T07:11:11.656Z,0.77
2022-12-07T07:13:38.743Z,0.70
2022-12-07T07:16:06.934Z,0.70
2022-12-07T07:18:34.923Z,0.70
2022-12-07T07:21:02.258Z,1.00
2022-12-07T07:23:29.935Z,0.77
2022-12-07T07:25:56.886Z,0.90
2022-12-07T07:28:24.540Z,0.50
2022-12-07T07:30:51.635Z,1.00
2022-12-07T07:33:18.643Z,0.68
2022-12-07T07:35:45.499Z,0.95
2022-12-07T07:38:12.387Z,0.93
2022-12-07T07:40:39.427Z,0.90
2022-12-07T07:43:06.281Z,1.00
2022-12-07T07:45:33.434Z,0.75
2022-12-07T07:48:00.359Z,0.65
2022-12-07T07:50:27.400Z,1.05
2022-12-07T07:52:54.359Z,0.50
2022-12-07T07:55:21.422Z,0.73
2022-12-07T07:57:54.161Z,0.73
2022-12-07T08:00:22.645Z,1.40
2022-12-07T08:02:49.622Z,1.15
2022-12-07T08:05:19.856Z,0.80
2022-12-07T08:07:46.988Z,0.90
2022-12-07T08:10:15.116Z,1.10
2022-12-07T08:13:03.131Z,0.98
2022-12-07T08:15:32.395Z,0.88
2022-12-07T08:18:00.006Z,1.00
2022-12-07T08:20:27.226Z,0.80
2022-12-07T08:22:54.288Z,1.55
2022-12-07T08:25:22.011Z,1.00
2022-12-07T08:27:49.271Z,0.80
2022-12-07T08:30:16.548Z,1.20
2022-12-07T08:32:45.111Z,0.70
2022-12-07T08:35:12.651Z,0.82
2022-12-07T08:37:40.113Z,1.00
2022-12-07T08:40:09.646Z,0.80
2022-12-07T08:42:41.443Z,1.27
2022-12-07T08:45:12.316Z,0.80
2022-12-07T08:47:43.208Z,0.70
2022-12-07T08:50:12.502Z,0.65
2022-12-07T08:52:41.577Z,0.77
2022-12-07T08:55:12.445Z,0.90
2022-12-07T08:57:40.610Z,0.90
2022-12-07T09:00:12.056Z,0.70
2022-12-07T09:02:39.357Z,0.75
2022-12-07T09:05:08.594Z,1.15
2022-12-07T09:07:39.930Z,0.50
2022-12-07T09:10:07.698Z,1.10
2022-12-07T09:12:34.648Z,1.60
2022-12-07T09:15:02.036Z,1.45
2022-12-07T09:17:28.963Z,1.77
2022-12-07T09:19:55.908Z,1.30
2022-12-07T09:22:22.852Z,1.13
2022-12-07T09:24:51.065Z,0.98
2022-12-07T09:27:19.004Z,0.70
2022-12-07T09:29:46.219Z,1.52
2022-12-07T09:32:15.068Z,0.87
2022-12-07T09:34:45.181Z,0.50
2022-12-07T09:37:12.456Z,0.73
2022-12-07T09:39:46.157Z,0.45
2022-12-07T09:42:40.965Z,0.68
2022-12-07T09:45:25.716Z,0.50
2022-12-07T09:47:53.131Z,0.40
2022-12-07T09:50:33.104Z,0.70
2022-12-07T09:53:15.753Z,0.38
2022-12-07T09:55:44.283Z,0.73
2022-12-07T09:58:23.493Z,0.80
2022-12-07T10:00:55.264Z,0.50
2022-12-07T10:03:22.596Z,0.75
2022-12-07T10:05:52.302Z,0.60
2022-12-07T10:08:19.504Z,0.50
2022-12-07T10:10:49.859Z,0.70
2022-12-07T10:13:21.392Z,0.47
2022-12-07T10:16:00.883Z,0.40
2022-12-07T10:18:42.167Z,0.50
2022-12-07T10:21:17.486Z,0.70
2022-12-07T10:24:02.603Z,0.30
2022-12-07T10:26:37.691Z,0.60
2022-12-07T10:29:20.394Z,0.50
2022-12-07T10:31:59.505Z,0.50
2022-12-07T10:34:30.168Z,0.50
2022-12-07T10:37:17.919Z,0.70
2022-12-07T10:39:57.047Z,0.68
2022-12-07T10:42:23.865Z,0.45
2022-12-07T10:45:11.311Z,0.80
2022-12-07T10:47:44.162Z,0.55
2022-12-07T10:50:19.743Z,0.40
2022-12-07T10:53:07.950Z,0.50
2022-12-07T10:55:53.493Z,0.75
2022-12-07T10:58:56.964Z,0.80
2022-12-07T11:01:27.102Z,0.60
2022-12-07T11:04:21.891Z,0.70
2022-12-07T11:07:13.611Z,0.52
2022-12-07T11:10:14.034Z,0.80
2022-12-07T11:13:05.647Z,0.95
2022-12-07T11:15:54.949Z,0.70
2022-12-07T11:18:33.673Z,0.70
2022-12-07T11:21:37.568Z,0.68
2022-12-07T11:24:27.236Z,0.50
2022-12-07T11:27:09.159Z,0.60
2022-12-07T11:29:53.520Z,0.50
2022-12-07T11:32:35.810Z,0.50
2022-12-07T11:35:15.509Z,0.55
2022-12-07T11:37:42.861Z,0.50
2022-12-07T11:40:37.630Z,0.63
2022-12-07T11:43:07.907Z,0.57
2022-12-07T11:45:36.355Z,0.47
2022-12-07T11:48:11.126Z,0.35
2022-12-07T11:50:43.786Z,0.30
2022-12-07T11:53:10.630Z,0.40
2022-12-07T11:55:55.511Z,0.32
2022-12-07T11:58:34.629Z,0.30
2022-12-07T12:01:25.316Z,0.32
2022-12-07T12:04:10.454Z,0.50
2022-12-07T12:06:38.764Z,0.50
2022-12-07T12:15:22.085Z,0.52
2022-12-07T12:18:16.678Z,0.50
2022-12-07T12:21:05.431Z,0.40
2022-12-07T12:23:46.323Z,0.77
2022-12-07T12:26:34.497Z,0.30
2022-12-07T12:29:09.828Z,0.47
2022-12-07T12:31:40.556Z,0.60
2022-12-07T12:34:59.791Z,0.40
2022-12-07T12:37:35.791Z,0.68
2022-12-07T12:40:17.851Z,0.40
2022-12-07T12:43:03.014Z,0.40
2022-12-07T12:45:34.469Z,0.30
2022-12-07T12:48:27.076Z,0.68
2022-12-07T12:51:32.823Z,0.50
2022-12-07T12:54:24.811Z,0.30
2022-12-07T12:57:18.965Z,0.30
2022-12-07T12:59:55.022Z,0.30
2022-12-07T13:02:27.143Z,0.60
2022-12-07T13:05:11.385Z,0.30
2022-12-07T13:07:53.823Z,0.33
2022-12-07T13:10:33.956Z,0.35
2022-12-07T13:13:12.806Z,0.30
2022-12-07T13:15:55.275Z,0.30
2022-12-07T13:18:35.339Z,0.20
2022-12-07T13:21:08.569Z,0.20
2022-12-07T13:23:44.458Z,0.30
2022-12-07T13:26:32.086Z,0.20
2022-12-07T13:29:26.383Z,0.20
2022-12-07T13:32:03.383Z,0.38
2022-12-07T13:34:40.453Z,0.23
2022-12-07T13:37:26.787Z,0.40
2022-12-07T13:39:59.875Z,0.40
2022-12-07T13:42:30.859Z,0.60
2022-12-07T13:45:00.521Z,0.60
2022-12-07T13:47:41.438Z,0.37
2022-12-07T13:50:37.606Z,0.45
2022-12-07T13:53:14.069Z,0.80
2022-12-07T13:55:53.810Z,0.70
2022-12-07T13:58:22.611Z,0.50
2022-12-07T14:00:55.792Z,0.77
2022-12-07T14:03:32.780Z,0.85
2022-12-07T14:06:23.834Z,0.90
2022-12-07T14:08:54.564Z,0.50
2022-12-07T14:11:31.310Z,0.77
2022-12-07T14:14:04.058Z,0.60
2022-12-07T14:16:33.020Z,0.57
2022-12-07T14:19:02.347Z,0.85
2022-12-07T14:21:31.747Z,1.33
2022-12-07T14:24:21.554Z,0.70
2022-12-07T14:26:50.679Z,1.00
2022-12-07T14:29:32.063Z,0.75
2022-12-07T14:32:15.985Z,0.70
2022-12-07T14:34:42.816Z,0.70
2022-12-07T14:37:11.853Z,0.50
2022-12-07T14:39:39.078Z,0.93
2022-12-07T14:42:06.066Z,0.80
2022-12-07T14:44:35.782Z,0.73
2022-12-07T14:49:51.043Z,0.63
2022-12-07T14:55:28.051Z,0.80
2022-12-07T14:57:58.035Z,0.75
2022-12-07T15:00:27.252Z,0.65
2022-12-07T15:02:55.458Z,0.60
2022-12-07T15:05:23.149Z,0.53
2022-12-07T15:07:51.375Z,0.52
2022-12-07T15:10:24.393Z,0.60
2022-12-07T15:12:52.555Z,0.70
2022-12-07T15:15:20.204Z,0.70
2022-12-07T15:17:47.263Z,0.40
2022-12-07T15:20:15.800Z,0.50
2022-12-07T15:22:43.504Z,0.82
2022-12-07T15:25:15.170Z,0.63
2022-12-07T15:27:42.655Z,0.40
2022-12-07T15:30:14.273Z,0.40
2022-12-07T15:32:42.710Z,0.40
2022-12-07T15:35:09.917Z,0.43
2022-12-07T15:37:37.835Z,0.40
2022-12-07T15:40:07.890Z,0.70
2022-12-07T15:42:36.995Z,0.50
2022-12-07T15:45:05.829Z,0.40
2022-12-07T15:48:02.344Z,0.38
2022-12-07T15:50:25.387Z,0.50
2022-12-07T15:52:52.328Z,0.73
2022-12-07T15:55:20.056Z,0.90
2022-12-07T15:57:48.185Z,1.13
2022-12-07T16:00:16.450Z,1.10
2022-12-07T16:02:43.520Z,1.00
2022-12-07T16:05:10.492Z,0.55
2022-12-07T16:07:37.505Z,0.97
2022-12-07T16:10:08.907Z,1.10
2022-12-07T16:12:37.189Z,0.60
2022-12-07T16:15:05.447Z,0.63
2022-12-07T16:17:34.372Z,0.80
2022-12-07T16:20:01.500Z,0.80
2022-12-07T16:22:29.310Z,0.88
2022-12-07T16:24:56.349Z,0.73
2022-12-07T16:27:23.291Z,0.95
2022-12-07T16:29:50.109Z,0.85
2022-12-07T16:32:16.910Z,0.70
2022-12-07T16:34:43.759Z,0.70
2022-12-07T16:37:10.646Z,0.60
2022-12-07T16:39:37.515Z,0.88
2022-12-07T16:42:04.628Z,0.85
2022-12-07T16:44:32.717Z,0.83
2022-12-07T16:47:00.120Z,0.60
2022-12-07T16:49:27.195Z,0.73
2022-12-07T16:52:18.138Z,0.52
2022-12-07T16:54:41.877Z,0.52
2022-12-07T16:57:08.739Z,0.50
2022-12-07T16:59:35.561Z,0.95
2022-12-07T17:02:02.959Z,0.75
2022-12-07T17:04:29.973Z,0.63
2022-12-07T17:06:57.054Z,0.93
2022-12-07T17:09:23.918Z,1.53
2022-12-07T17:11:50.877Z,0.90
2022-12-07T17:14:36.685Z,1.17
2022-12-07T17:17:04.289Z,1.10
2022-12-07T17:19:31.117Z,0.90
2022-12-07T17:21:57.974Z,1.77
2022-12-07T17:24:24.918Z,1.10
2022-12-07T17:26:51.976Z,1.40
2022-12-07T17:29:20.080Z,0.80
2022-12-07T17:31:51.719Z,0.93
2022-12-07T17:34:19.566Z,1.20
2022-12-07T17:36:46.636Z,0.82
2022-12-07T17:39:17.546Z,1.75
2022-12-07T17:42:02.855Z,1.40
2022-12-07T17:44:30.184Z,1.90
2022-12-07T17:47:02.757Z,1.87
2022-12-07T17:49:30.283Z,0.93
2022-12-07T17:52:16.074Z,0.85
2022-12-07T17:54:43.217Z,0.60
2022-12-07T17:57:10.395Z,0.80
2022-12-07T17:59:37.611Z,0.73
2022-12-07T18:02:04.951Z,1.23
2022-12-07T18:04:32.068Z,0.93
2022-12-07T18:06:59.052Z,0.95
2022-12-07T18:09:25.912Z,0.98
2022-12-07T18:11:52.733Z,0.60
2022-12-07T18:14:19.584Z,0.80
2022-12-07T18:16:46.759Z,1.00
2022-12-07T18:19:14.941Z,1.35
2022-12-07T18:21:42.457Z,1.63
2022-12-07T18:24:12.126Z,1.50
2022-12-07T18:26:39.764Z,1.52
2022-12-07T18:29:07.532Z,1.35
2022-12-07T18:31:35.999Z,1.60
2022-12-07T18:34:12.193Z,1.40
2022-12-07T18:36:42.377Z,1.87
2022-12-07T18:39:09.440Z,1.42
2022-12-07T18:41:36.338Z,1.50
2022-12-07T18:44:05.350Z,2.00
2022-12-07T18:46:33.440Z,2.15
2022-12-07T18:49:00.864Z,1.80
2022-12-07T18:51:32.431Z,2.30
2022-12-07T18:54:01.629Z,2.38
2022-12-07T18:56:29.199Z,1.80
2022-12-07T18:59:17.154Z,1.75
2022-12-07T19:01:46.964Z,2.37
2022-12-07T19:04:13.939Z,2.75
2022-12-07T19:06:45.922Z,2.65
2022-12-07T19:09:13.687Z,2.65
2022-12-07T19:11:50.828Z,2.25
2022-12-07T19:14:25.572Z,3.60
2022-12-07T19:16:55.821Z,2.80
2022-12-07T19:19:24.978Z,2.22
2022-12-07T19:21:52.021Z,2.08
2022-12-07T19:24:23.341Z,2.55
2022-12-07T19:26:52.009Z,2.97
2022-12-07T19:29:19.047Z,3.10
2022-12-07T19:31:46.070Z,2.72
2022-12-07T19:34:16.328Z,3.28
2022-12-07T19:36:43.778Z,3.15
2022-12-07T19:39:14.693Z,3.30
2022-12-07T19:41:46.325Z,3.22
2022-12-07T19:44:19.024Z,2.50
2022-12-07T19:46:49.967Z,2.50
2022-12-07T19:49:18.412Z,2.20
2022-12-07T19:51:48.250Z,2.20
2022-12-07T19:54:17.496Z,2.15
2022-12-07T19:56:45.327Z,2.17
2022-12-07T19:59:13.552Z,3.03
2022-12-07T20:01:41.549Z,2.05
2022-12-07T20:04:11.405Z,2.67
2022-12-07T20:06:38.712Z,2.65
2022-12-07T20:09:05.925Z,2.95
2022-12-07T20:11:51.237Z,2.90
2022-12-07T20:14:18.084Z,2.60
2022-12-07T20:16:45.856Z,2.90
2022-12-07T20:19:14.276Z,2.60
2022-12-07T20:21:43.171Z,2.67
2022-12-07T20:24:17.581Z,2.47
2022-12-07T20:26:45.762Z,2.60
2022-12-07T20:29:18.226Z,2.80
2022-12-07T20:31:47.109Z,2.63
2022-12-07T20:34:14.547Z,2.80
2022-12-07T20:36:41.427Z,2.85
2022-12-07T20:39:08.486Z,3.17
2022-12-07T20:41:54.208Z,3.60
2022-12-07T20:44:21.258Z,2.67
2022-12-07T20:46:48.968Z,2.63
2022-12-07T20:49:17.253Z,2.90
2022-12-07T20:51:45.677Z,3.40
2022-12-07T20:54:13.674Z,2.57
2022-12-07T20:56:41.494Z,3.15
2022-12-07T20:59:11.439Z,3.22
2022-12-07T21:01:38.488Z,3.22
2022-12-07T21:04:06.180Z,3.33
2022-12-07T21:06:33.211Z,3.63
2022-12-07T21:09:00.875Z,2.42
2022-12-07T21:11:30.456Z,2.50
2022-12-07T21:13:57.609Z,3.00
2022-12-07T21:16:27.834Z,2.63
2022-12-07T21:18:56.971Z,2.40
2022-12-07T21:21:23.983Z,2.45
2022-12-07T21:23:58.105Z,2.20
2022-12-07T21:26:28.161Z,2.05
2022-12-07T21:28:56.652Z,2.38
2022-12-07T21:31:23.631Z,1.87
2022-12-07T21:33:50.533Z,1.92
2022-12-07T21:36:20.284Z,1.35
2022-12-07T21:38:48.336Z,2.13
2022-12-07T21:41:35.036Z,1.60
2022-12-07T21:44:03.016Z,1.80
2022-12-07T21:46:34.202Z,1.77
2022-12-07T21:49:04.909Z,2.53
2022-12-07T21:51:32.452Z,1.80
2022-12-07T21:54:01.358Z,1.77
2022-12-07T21:56:34.877Z,1.80
2022-12-07T21:59:07.097Z,1.92
2022-12-07T22:01:38.215Z,1.90
2022-12-07T22:04:12.142Z,1.85
2022-12-07T22:06:40.126Z,1.63
2022-12-07T22:09:07.585Z,2.00
2022-12-07T22:11:35.511Z,1.20
2022-12-07T22:14:25.974Z,1.92
2022-12-07T22:16:53.208Z,2.28
2022-12-07T22:19:20.174Z,1.38
2022-12-07T22:21:47.284Z,1.43
2022-12-07T22:24:14.168Z,1.77
2022-12-07T22:26:42.333Z,1.45
2022-12-07T22:29:09.363Z,1.80
2022-12-07T22:31:38.266Z,1.58
2022-12-07T22:34:05.251Z,2.10
2022-12-07T22:36:32.452Z,1.83
2022-12-07T22:39:00.968Z,1.85
2022-12-07T22:41:32.437Z,1.70
2022-12-07T22:44:00.622Z,1.83
2022-12-07T22:46:28.729Z,2.20
2022-12-07T22:48:55.574Z,1.70
2022-12-07T22:51:26.531Z,1.88
2022-12-07T22:53:54.476Z,1.98
2022-12-07T22:56:21.807Z,2.10
2022-12-07T22:58:49.081Z,1.37
2022-12-07T23:01:18.110Z,1.67
2022-12-07T23:03:45.675Z,1.65
2022-12-07T23:06:15.450Z,1.60
2022-12-07T23:08:42.411Z,1.98
2022-12-07T23:11:11.360Z,2.00
2022-12-07T23:13:38.299Z,1.88
2022-12-07T23:16:14.182Z,1.80
2022-12-07T23:18:42.769Z,2.30
2022-12-07T23:21:10.205Z,1.88
2022-12-07T23:23:37.103Z,1.53
2022-12-07T23:26:06.478Z,1.92
2022-12-07T23:28:34.369Z,1.92
2022-12-07T23:31:06.193Z,1.80
2022-12-07T23:33:33.556Z,1.80
2022-12-07T23:36:08.204Z,1.40
2022-12-07T23:38:35.245Z,1.70
2022-12-07T23:41:09.957Z,1.60
2022-12-07T23:43:37.677Z,1.75
2022-12-07T23:46:08.557Z,2.20
2022-12-07T23:48:36.306Z,2.10
2022-12-07T23:51:03.461Z,1.50
2022-12-07T23:53:33.727Z,2.08
2022-12-07T23:56:00.672Z,1.77
2022-12-07T23:58:27.649Z,2.22
